Time;durP1;ratioP1;P1;durP2;ratioP2;P2;SDS_P1;SDS_P2;PMS_P1;PMS_P2;Temp;Humidity;BMP_temperature;BMP_pressure;BME280_temperature;BME280_humidity;BME280_pressure;Samples;Min_cycle;Max_cycle;Signal;HPM_P1;HPM_P2
2021/03/02 00:00:19;;;;;;;4.97;3.10;;;;;;;-3.67;89.16;94538.78;1859974;77;21105;-80
2021/03/02 00:02:47;;;;;;;4.73;3.60;;;;;;;-3.65;89.07;94539.28;1813365;77;21156;-80
2021/03/02 00:05:15;;;;;;;5.33;3.57;;;;;;;-3.64;89.14;94536.11;1847742;77;21143;-80
2021/03/02 00:07:43;;;;;;;6.20;3.87;;;;;;;-3.62;89.12;94538.73;1833411;77;21192;-80
2021/03/02 00:10:12;;;;;;;6.53;3.37;;;;;;;-3.61;88.82;94535.53;1826595;77;21163;-80
2021/03/02 00:12:41;;;;;;;3.47;3.17;;;;;;;-3.67;88.63;94531.59;1859968;74;21171;-80
2021/03/02 00:15:12;;;;;;;4.23;3.30;;;;;;;-3.73;88.48;94538.02;1860268;77;21095;-80
2021/03/02 00:17:47;;;;;;;3.07;2.50;;;;;;;-3.81;88.48;94541.27;1809007;78;21109;-80
2021/03/02 00:20:20;;;;;;;5.63;3.20;;;;;;;-3.85;88.80;94536.80;1846033;77;21357;-80
2021/03/02 00:23:26;;;;;;;4.23;3.17;;;;;;;-3.89;88.77;94537.09;1834152;77;21217;-80
2021/03/02 00:25:58;;;;;;;4.83;3.55;;;;;;;-3.97;88.80;94534.48;1793637;79;21588;-80
2021/03/02 00:28:26;;;;;;;5.50;4.37;;;;;;;-4.06;88.79;94542.77;1793137;79;21038;-79
2021/03/02 00:30:54;;;;;;;6.13;3.70;;;;;;;-4.11;89.14;94536.96;1809121;79;21253;-80
2021/03/02 00:33:21;;;;;;;3.97;3.50;;;;;;;-4.08;89.27;94537.74;1814172;79;21176;-80
2021/03/02 00:35:51;;;;;;;12.40;7.47;;;;;;;-4.08;89.13;94539.08;1858538;76;21122;-79
2021/03/02 00:38:19;;;;;;;12.37;7.67;;;;;;;-4.04;88.94;94537.98;1861045;77;21075;-80
2021/03/02 00:40:46;;;;;;;22.70;11.63;;;;;;;-4.04;88.65;94535.33;1837933;77;21099;-79
2021/03/02 00:43:14;;;;;;;10.57;5.67;;;;;;;-4.07;88.44;94540.66;1826611;76;21034;-79
2021/03/02 00:45:43;;;;;;;8.60;4.57;;;;;;;-4.11;88.47;94537.50;1858797;77;21070;-79
2021/03/02 00:48:12;;;;;;;7.67;4.37;;;;;;;-4.14;88.43;94532.20;1814389;79;21127;-80
2021/03/02 00:50:39;;;;;;;5.47;3.70;;;;;;;-4.17;88.20;94533.56;1852952;77;21317;-78
2021/03/02 00:53:08;;;;;;;6.77;4.13;;;;;;;-4.20;88.31;94531.45;1859595;77;21149;-79
2021/03/02 00:55:36;;;;;;;6.60;3.37;;;;;;;-4.22;88.14;94538.09;1858952;75;21167;-79
2021/03/02 00:58:04;;;;;;;4.43;3.43;;;;;;;-4.28;88.20;94541.33;1852569;77;21402;-79
2021/03/02 01:00:34;;;;;;;22.07;12.43;;;;;;;-4.32;88.45;94532.86;1813718;79;21123;-79
2021/03/02 01:03:03;;;;;;;26.43;15.57;;;;;;;-4.32;88.46;94528.87;1859468;76;21193;-79
2021/03/02 01:05:33;;;;;;;24.20;15.00;;;;;;;-4.34;88.21;94537.10;1824601;77;21271;-78
2021/03/02 01:08:03;;;;;;;34.97;17.37;;;;;;;-4.39;88.13;94542.45;1839447;77;21110;-79
2021/03/02 01:10:33;;;;;;;41.10;19.80;;;;;;;-4.41;88.19;94529.43;1844556;77;21192;-79
2021/03/02 01:13:03;;;;;;;40.87;22.53;;;;;;;-4.42;88.05;94529.18;1814899;75;21148;-76
2021/03/02 01:15:31;;;;;;;43.87;23.83;;;;;;;-4.45;87.95;94521.75;1857226;77;21537;-77
2021/03/02 01:17:58;;;;;;;26.93;16.40;;;;;;;-4.47;87.83;94520.46;1813905;77;21713;-76
2021/03/02 01:20:26;;;;;;;28.83;16.83;;;;;;;-4.54;87.84;94519.42;1842722;75;21054;-77
2021/03/02 01:22:53;;;;;;;37.13;20.50;;;;;;;-4.56;87.99;94516.23;1857635;77;22310;-77
2021/03/02 01:25:21;;;;;;;38.00;20.37;;;;;;;-4.58;88.05;94512.29;1846034;77;21182;-75
2021/03/02 01:27:49;;;;;;;19.70;12.10;;;;;;;-4.61;88.02;94506.98;1810494;77;21626;-78
2021/03/02 01:30:18;;;;;;;21.33;12.97;;;;;;;-4.63;88.09;94507.78;1857136;77;21641;-76
2021/03/02 01:32:47;;;;;;;31.10;16.73;;;;;;;-4.64;88.26;94514.16;1819869;77;21061;-76
2021/03/02 01:35:14;;;;;;;25.77;14.70;;;;;;;-4.65;88.24;94505.95;1837803;77;22294;-76
2021/03/02 01:37:42;;;;;;;17.63;9.07;;;;;;;-4.67;88.20;94506.20;1856940;76;21189;-76
2021/03/02 01:40:13;;;;;;;4.47;3.17;;;;;;;-4.67;88.19;94500.89;1852090;77;21299;-76
2021/03/02 01:42:41;;;;;;;22.90;12.97;;;;;;;-4.67;88.13;94497.45;1810205;79;21192;-75
2021/03/02 01:45:13;;;;;;;18.37;10.17;;;;;;;-4.69;87.91;94503.05;1854082;77;21193;-75
2021/03/02 01:47:42;;;;;;;11.00;6.20;;;;;;;-4.75;87.78;94498.81;1856757;77;21633;-76
2021/03/02 01:50:12;;;;;;;3.93;2.83;;;;;;;-4.80;87.82;94494.87;1833082;77;21579;-77
2021/03/02 01:52:39;;;;;;;8.93;5.73;;;;;;;-4.84;87.85;94497.02;1823999;76;21169;-76
2021/03/02 01:55:08;;;;;;;24.73;13.63;;;;;;;-4.85;87.77;94496.73;1856475;75;21174;-76
2021/03/02 01:57:35;;;;;;;36.00;18.17;;;;;;;-4.93;87.48;94496.26;1856423;77;22132;-76
2021/03/02 02:00:29;;;;;;;29.27;16.70;;;;;;;-5.00;87.49;94494.42;1856441;77;21170;-77
2021/03/02 02:03:43;;;;;;;21.80;13.40;;;;;;;-5.07;87.50;94485.96;1818766;77;21195;-76
2021/03/02 02:06:31;;;;;;;30.43;15.97;;;;;;;-5.09;87.66;94484.09;1851984;75;21729;-76
2021/03/02 02:09:19;;;;;;;31.73;17.05;;;;;;;-5.10;87.70;94487.03;1820094;77;21164;-76
2021/03/02 02:12:22;;;;;;;28.70;16.73;;;;;;;-5.13;87.56;94489.69;1844356;76;21145;-76
2021/03/02 02:14:53;;;;;;;25.37;12.73;;;;;;;-5.19;87.54;94490.25;1857395;77;22179;-75
2021/03/02 02:17:32;;;;;;;30.93;17.33;;;;;;;-5.19;87.68;94491.58;1782344;77;21638;-75
2021/03/02 02:20:03;;;;;;;28.53;16.23;;;;;;;-5.19;87.68;94486.27;1762845;79;21157;-75
2021/03/02 02:22:45;;;;;;;30.03;15.63;;;;;;;-5.21;87.74;94492.36;1777647;80;21635;-75
2021/03/02 02:25:21;;;;;;;35.33;16.90;;;;;;;-5.19;87.73;94488.92;1812128;77;21113;-75
2021/03/02 02:27:53;;;;;;;26.27;13.53;;;;;;;-5.20;87.62;94491.29;1857165;77;21101;-74
2021/03/02 02:30:21;;;;;;;32.40;15.50;;;;;;;-5.23;87.58;94486.55;1857427;77;21133;-76
2021/03/02 02:32:50;;;;;;;28.07;16.63;;;;;;;-5.25;87.44;94491.31;1857077;77;21556;-75
2021/03/02 02:35:22;;;;;;;25.53;14.67;;;;;;;-5.28;87.51;94489.20;1834650;77;21171;-75
2021/03/02 02:37:49;;;;;;;26.80;14.57;;;;;;;-5.28;87.69;94487.08;1821333;77;21609;-75
2021/03/02 02:40:19;;;;;;;14.40;7.67;;;;;;;-5.30;87.60;94491.34;1819428;77;21624;-75
2021/03/02 02:42:48;;;;;;;21.53;10.20;;;;;;;-5.35;87.58;94491.88;1818854;77;21114;-75
2021/03/02 02:45:16;;;;;;;17.50;9.77;;;;;;;-5.42;87.68;94488.17;1817270;77;21179;-74
2021/03/02 02:47:46;;;;;;;26.20;13.60;;;;;;;-5.44;87.90;94491.64;1839255;77;21176;-75
2021/03/02 02:50:14;;;;;;;28.90;14.97;;;;;;;-5.45;88.08;94492.70;1838291;77;21200;-74
2021/03/02 02:52:44;;;;;;;32.63;16.47;;;;;;;-5.44;88.06;94489.77;1819552;76;21069;-74
2021/03/02 02:55:16;;;;;;;27.60;14.17;;;;;;;-5.45;87.90;94490.84;1857553;77;21138;-76
2021/03/02 02:57:47;;;;;;;32.07;17.87;;;;;;;-5.45;87.94;94482.10;1777914;79;21151;-75
2021/03/02 03:00:18;;;;;;;27.87;14.03;;;;;;;-5.46;87.93;94489.23;1813724;78;21157;-76
2021/03/02 03:02:51;;;;;;;28.40;15.87;;;;;;;-5.46;87.82;94491.09;1792290;77;21180;-74
2021/03/02 03:45:41;;;;;;;7.83;4.87;;;;;;;-5.76;87.58;94502.00;1826455;77;21179;-77
2021/03/02 03:48:09;;;;;;;7.13;4.80;;;;;;;-5.84;88.29;94498.56;1805408;76;21153;-75
2021/03/02 03:50:37;;;;;;;27.37;15.70;;;;;;;-5.86;88.33;94504.68;1809271;77;21136;-76
2021/03/02 03:53:06;;;;;;;30.60;17.57;;;;;;;-5.82;88.29;94511.56;1848390;77;21631;-75
2021/03/02 03:55:38;;;;;;;31.10;15.90;;;;;;;-5.83;88.11;94512.61;1810946;79;21168;-76
2021/03/02 03:58:06;;;;;;;34.10;17.77;;;;;;;-5.81;88.01;94512.61;1857024;74;22956;-75
2021/03/02 04:00:34;;;;;;;17.77;9.70;;;;;;;-5.83;87.85;94510.75;1821192;77;21618;-74
2021/03/02 04:03:02;;;;;;;33.87;16.50;;;;;;;-5.82;87.90;94509.70;1810521;79;21580;-75
2021/03/02 04:05:30;;;;;;;42.90;21.60;;;;;;;-5.81;87.82;94507.84;1810079;79;21610;-76
2021/03/02 04:07:58;;;;;;;38.93;19.33;;;;;;;-5.83;87.49;94506.77;1810374;79;21221;-74
2021/03/02 04:10:25;;;;;;;28.93;15.07;;;;;;;-5.83;87.39;94510.75;1811052;79;21354;-74
2021/03/02 04:12:53;;;;;;;24.77;13.57;;;;;;;-5.86;87.25;94512.63;1778546;79;21077;-75
2021/03/02 04:15:22;;;;;;;35.80;21.33;;;;;;;-5.90;87.27;94511.57;1802804;79;21166;-75
2021/03/02 04:17:53;;;;;;;42.40;22.30;;;;;;;-5.94;87.23;94506.04;1804496;79;21141;-75
2021/03/02 04:20:21;;;;;;;32.03;17.63;;;;;;;-5.96;87.29;94502.84;1797366;77;21679;-75
2021/03/02 04:22:50;;;;;;;32.30;17.83;;;;;;;-5.94;87.27;94495.44;1777399;80;21368;-75
2021/03/02 04:25:18;;;;;;;26.47;14.00;;;;;;;-5.95;87.08;94500.98;1857127;77;21589;-75
2021/03/02 04:27:46;;;;;;;27.43;14.73;;;;;;;-5.97;87.19;94496.50;1856858;77;21127;-75
2021/03/02 04:30:15;;;;;;;35.37;16.63;;;;;;;-5.97;87.19;94504.45;1831127;77;21108;-73
2021/03/02 04:32:42;;;;;;;32.37;15.93;;;;;;;-6.02;87.16;94495.95;1810557;79;21097;-75
2021/03/02 04:35:11;;;;;;;32.93;16.17;;;;;;;-6.02;87.25;94501.78;1816262;76;22116;-76
2021/03/02 04:37:39;;;;;;;27.20;14.90;;;;;;;-6.01;87.24;94496.77;1857237;77;21602;-75
2021/03/02 04:40:08;;;;;;;30.87;14.63;;;;;;;-5.99;87.12;94492.77;1813827;77;21622;-75
2021/03/02 04:42:35;;;;;;;29.20;15.77;;;;;;;-5.98;87.03;94487.77;1843013;76;21055;-75
2021/03/02 04:45:06;;;;;;;26.43;14.87;;;;;;;-5.96;86.93;94482.19;1835703;77;21116;-75
2021/03/02 04:47:35;;;;;;;31.93;18.47;;;;;;;-5.97;86.76;94483.26;1822788;74;21249;-75
2021/03/02 04:50:04;;;;;;;28.87;15.10;;;;;;;-5.96;86.61;94482.98;1855695;77;21681;-74
2021/03/02 04:52:32;;;;;;;30.30;15.10;;;;;;;-5.98;86.44;94478.49;1810715;79;21144;-74
2021/03/02 04:55:00;;;;;;;31.73;15.77;;;;;;;-6.00;86.30;94479.27;1811179;79;21105;-76
2021/03/02 04:57:27;;;;;;;35.40;17.50;;;;;;;-6.05;86.10;94484.59;1838896;74;21150;-75
2021/03/02 04:59:55;;;;;;;32.23;17.63;;;;;;;-6.11;86.02;94485.63;1839419;77;22215;-74
2021/03/02 05:02:23;;;;;;;34.33;19.60;;;;;;;-6.15;85.95;94487.22;1817153;76;21266;-75
2021/03/02 05:04:51;;;;;;;32.07;18.27;;;;;;;-6.20;85.93;94481.94;1856354;77;21151;-75
2021/03/02 05:07:19;;;;;;;38.63;20.23;;;;;;;-6.22;85.98;94482.72;1813081;77;21187;-74
2021/03/02 05:09:46;;;;;;;28.43;17.00;;;;;;;-6.24;86.05;94484.82;1810024;79;21061;-75
2021/03/02 05:12:14;;;;;;;32.00;16.70;;;;;;;-6.22;86.16;94484.83;1810946;79;22248;-75
2021/03/02 05:14:41;;;;;;;26.73;15.03;;;;;;;-6.19;86.12;94486.16;1822354;76;21159;-75
2021/03/02 05:17:09;;;;;;;26.20;14.10;;;;;;;-6.19;86.00;94487.48;1856410;77;21199;-75
2021/03/02 05:19:37;;;;;;;35.43;19.80;;;;;;;-6.15;86.10;94488.02;1811133;79;21060;-75
2021/03/02 05:22:05;;;;;;;36.57;22.60;;;;;;;-6.18;85.97;94485.09;1810672;79;21163;-75
2021/03/02 05:24:32;;;;;;;32.53;18.40;;;;;;;-6.25;85.85;94491.18;1810478;79;21195;-75
2021/03/02 05:27:00;;;;;;;36.17;20.67;;;;;;;-6.29;86.06;94489.59;1826499;74;21199;-74
2021/03/02 05:29:27;;;;;;;43.17;25.37;;;;;;;-6.30;86.42;94494.62;1850103;77;21617;-74
2021/03/02 05:31:55;;;;;;;36.30;21.90;;;;;;;-6.31;86.41;94486.95;1809691;79;21599;-75
2021/03/02 05:34:23;;;;;;;30.00;17.33;;;;;;;-6.30;86.38;94489.33;1809783;79;21191;-74
2021/03/02 05:36:50;;;;;;;28.60;16.17;;;;;;;-6.27;86.33;94486.70;1840865;77;21329;-74
2021/03/02 05:39:17;;;;;;;32.80;17.77;;;;;;;-6.28;86.37;94484.58;1856296;75;21155;-74
2021/03/02 05:41:46;;;;;;;27.60;16.03;;;;;;;-6.26;86.49;94486.95;1855536;77;21151;-74
2021/03/02 05:44:14;;;;;;;34.93;18.17;;;;;;;-6.22;86.64;94488.01;1855913;77;21317;-77
2021/03/02 05:46:42;;;;;;;32.87;19.10;;;;;;;-6.20;86.50;94486.70;1810911;79;21658;-75
2021/03/02 05:49:11;;;;;;;50.07;25.73;;;;;;;-6.12;86.55;94494.64;1848092;77;21197;-75
2021/03/02 05:51:40;;;;;;;48.77;25.50;;;;;;;-5.70;87.63;94486.91;1830612;77;21184;-74
2021/03/02 05:54:09;;;;;;;51.87;29.87;;;;;;;-4.96;87.40;94484.86;1826760;74;21178;-75
2021/03/02 05:56:38;;;;;;;35.43;22.10;;;;;;;-4.12;85.69;94476.16;1851379;77;21063;-75
2021/03/02 05:59:06;;;;;;;32.53;19.53;;;;;;;-3.38;84.18;94484.83;1810671;79;21155;-75
2021/03/02 06:01:35;;;;;;;34.27;21.90;;;;;;;-2.76;82.36;94479.84;1810639;79;21645;-75
2021/03/02 06:04:05;;;;;;;35.67;23.23;;;;;;;-2.24;80.11;94480.75;1810917;79;21467;-76
2021/03/02 06:06:34;;;;;;;40.43;27.65;;;;;;;-1.75;77.29;94479.48;1802896;77;21194;-76
2021/03/02 06:09:03;;;;;;;42.13;29.37;;;;;;;-1.26;76.30;94483.45;1856389;75;21587;-76
2021/03/02 06:11:32;;;;;;;45.25;30.97;;;;;;;-0.82;73.59;94481.31;1852774;77;21170;-73
2021/03/02 06:14:24;;;;;;;35.20;26.05;;;;;;;-0.53;71.43;94476.96;1809961;79;21382;-76
2021/03/02 06:16:53;;;;;;;67.70;38.73;;;;;;;-0.45;70.12;94475.47;1856181;77;21146;-76
2021/03/02 06:19:41;;;;;;;50.40;32.35;;;;;;;-0.51;69.01;94476.13;1819406;77;21168;-77
2021/03/02 06:22:39;;;;;;;36.08;21.97;;;;;;;-0.59;68.65;94465.61;1810169;79;21171;-76
2021/03/02 06:25:28;;;;;;;26.52;15.53;;;;;;;-0.65;69.00;94468.67;1842517;76;21159;-77
2021/03/02 06:27:56;;;;;;;32.48;21.23;;;;;;;-0.65;68.95;94467.34;1828202;77;21597;-74
2021/03/02 06:30:24;;;;;;;42.75;25.65;;;;;;;-0.68;68.22;94464.70;1810137;79;21068;-74
2021/03/02 06:32:54;;;;;;;69.53;42.50;;;;;;;-0.85;68.06;94463.99;1810968;79;21315;-74
2021/03/02 06:35:31;;;;;;;33.70;22.42;;;;;;;-1.01;68.66;94464.84;1810667;79;21189;-75
2021/03/02 06:38:00;;;;;;;41.00;25.77;;;;;;;-1.10;69.77;94469.27;1857398;77;21102;-75
2021/03/02 06:40:52;;;;;;;50.78;35.05;;;;;;;-1.12;70.09;94468.79;1819524;77;21198;-75
2021/03/02 06:43:38;;;;;;;90.30;52.33;;;;;;;-0.98;69.98;94464.77;1810125;79;21626;-74
2021/03/02 06:46:10;;;;;;;109.52;59.40;;;;;;;-0.84;69.84;94456.22;1839527;77;21143;-77
2021/03/02 06:48:56;;;;;;;93.27;45.48;;;;;;;-0.84;69.44;94454.09;1835706;77;21164;-77
2021/03/02 06:51:28;;;;;;;75.85;35.45;;;;;;;-0.83;70.06;94457.83;1825431;77;21182;-76
2021/03/02 06:54:10;;;;;;;75.92;36.63;;;;;;;-0.73;71.10;94456.81;1856600;76;21357;-77
2021/03/02 06:56:39;;;;;;;53.65;27.52;;;;;;;-0.61;71.08;94465.09;1856594;77;21139;-77
2021/03/02 06:59:15;;;;;;;62.75;31.45;;;;;;;-0.42;70.97;94458.28;1808751;79;21152;-76
2021/03/02 07:01:45;;;;;;;49.85;27.48;;;;;;;-0.30;70.36;94457.24;1809174;79;21452;-76
2021/03/02 07:04:19;;;;;;;33.10;18.77;;;;;;;-0.17;70.31;94459.63;1809563;79;21745;-76
2021/03/02 07:06:52;;;;;;;31.30;19.02;;;;;;;-0.08;69.37;94453.00;1829448;75;22820;-76
2021/03/02 07:09:18;;;;;;;33.88;21.73;;;;;;;-0.05;68.40;94455.08;1845034;77;21249;-77
2021/03/02 07:11:45;;;;;;;27.87;19.32;;;;;;;0.10;68.41;94450.70;1808581;79;21144;-77
2021/03/02 07:14:14;;;;;;;24.07;15.65;;;;;;;0.26;68.14;94451.13;1807784;79;21195;-77
2021/03/02 07:16:47;;;;;;;27.27;16.52;;;;;;;0.27;68.00;94458.63;1845863;77;21194;-77
2021/03/02 07:19:18;;;;;;;22.05;13.43;;;;;;;0.30;68.04;94456.66;1855650;77;21362;-76
2021/03/02 07:21:50;;;;;;;24.52;14.55;;;;;;;0.48;68.23;94444.42;1855182;76;21464;-77
2021/03/02 07:24:19;;;;;;;25.00;13.90;;;;;;;0.77;67.88;94448.52;1846212;77;21168;-77
2021/03/02 07:26:47;;;;;;;18.05;10.05;;;;;;;1.14;67.62;94453.16;1809141;79;21168;-76
2021/03/02 07:29:14;;;;;;;24.37;14.07;;;;;;;1.49;65.89;94446.55;1809637;79;21239;-78
2021/03/02 07:31:42;;;;;;;22.95;12.93;;;;;;;1.58;65.18;94449.50;1809808;79;22069;-77
2021/03/02 07:34:11;;;;;;;13.48;8.63;;;;;;;1.81;65.23;94438.64;1809776;79;21207;-76
2021/03/02 07:36:43;;;;;;;13.83;7.62;;;;;;;2.07;64.08;94443.47;1809376;77;21191;-76
2021/03/02 07:39:19;;;;;;;11.93;6.97;;;;;;;2.09;63.18;94437.77;1808635;79;21175;-76
2021/03/02 07:41:48;;;;;;;12.00;7.40;;;;;;;1.99;63.42;94439.42;1809059;79;21152;-77
2021/03/02 07:44:16;;;;;;;11.73;7.40;;;;;;;1.90;63.86;94435.41;1808702;79;22646;-76
2021/03/02 07:46:55;;;;;;;18.00;10.05;;;;;;;1.81;63.18;94437.30;1843141;77;21167;-76
2021/03/02 07:49:28;;;;;;;24.82;14.87;;;;;;;1.73;64.19;94436.72;1828200;77;21457;-77
2021/03/02 07:52:12;;;;;;;13.93;8.93;;;;;;;1.69;63.95;94440.58;1808946;79;21144;-78
2021/03/02 07:54:41;;;;;;;15.83;9.95;;;;;;;1.61;63.48;94440.02;1807628;79;21195;-77
2021/03/02 07:57:21;;;;;;;15.63;8.60;;;;;;;1.64;64.41;94432.70;1808099;79;21626;-79
2021/03/02 08:00:01;;;;;;;22.80;13.83;;;;;;;1.66;63.61;94425.92;1808551;79;22061;-78
2021/03/02 08:02:30;;;;;;;15.43;10.03;;;;;;;1.66;64.41;94423.80;1855123;76;21173;-77
2021/03/02 08:05:20;;;;;;;20.15;11.00;;;;;;;1.76;64.38;94426.16;1817590;77;21160;-78
2021/03/02 08:07:48;;;;;;;19.57;12.95;;;;;;;1.95;64.59;94429.31;1808694;78;21190;-78
2021/03/02 08:10:34;;;;;;;20.35;11.88;;;;;;;2.47;63.69;94432.52;1765487;80;21275;-78
2021/03/02 08:13:38;;;;;;;13.80;8.25;;;;;;;2.97;62.79;94431.11;1775262;80;21736;-79
2021/03/02 08:16:13;;;;;;;18.35;10.58;;;;;;;3.53;60.62;94428.53;1775807;80;21190;-78
2021/03/02 08:18:42;;;;;;;16.90;10.43;;;;;;;4.04;59.44;94419.89;1794023;74;21663;-79
2021/03/02 08:21:19;;;;;;;11.10;8.38;;;;;;;4.47;58.30;94423.31;1855265;77;21146;-79
2021/03/02 08:23:56;;;;;;;16.07;10.35;;;;;;;4.94;57.54;94428.39;1809301;79;21356;-78
2021/03/02 08:26:32;;;;;;;19.15;12.07;;;;;;;5.49;56.17;94422.47;1809513;79;21165;-79
2021/03/02 08:29:16;;;;;;;10.88;7.90;;;;;;;6.00;54.35;94423.44;1844284;75;21588;-79
2021/03/02 08:31:48;;;;;;;18.65;14.55;;;;;;;6.23;52.67;94422.35;1855944;77;21593;-79
2021/03/02 08:34:18;;;;;;;14.38;9.60;;;;;;;6.29;52.84;94420.99;1835246;77;21148;-80
2021/03/02 08:36:52;;;;;;;12.53;8.75;;;;;;;6.43;53.32;94425.45;1809461;79;22143;-80
2021/03/02 08:39:20;;;;;;;11.17;7.97;;;;;;;6.63;51.64;94412.07;1809440;79;21623;-80
2021/03/02 08:41:49;;;;;;;10.55;7.58;;;;;;;6.63;51.64;94412.07;1809642;79;21844;-80
2021/03/02 08:44:23;;;;;;;10.72;7.83;;;;;;;6.71;51.10;94417.31;1810154;79;21183;-81
2021/03/02 08:46:55;;;;;;;15.88;10.28;;;;;;;6.88;51.20;94410.00;1840196;77;21182;-81
2021/03/02 08:49:24;;;;;;;11.12;8.65;;;;;;;7.08;51.09;94410.91;1856566;75;21199;-81
2021/03/02 08:52:00;;;;;;;12.10;8.30;;;;;;;7.27;51.62;94415.06;1855765;76;21150;-81
2021/03/02 08:54:28;;;;;;;13.40;10.10;;;;;;;7.39;50.04;94410.12;1856158;77;21159;-80
2021/03/02 08:57:05;;;;;;;8.55;7.17;;;;;;;7.44;50.10;94420.66;1856768;77;21143;-81
2021/03/02 08:59:33;;;;;;;11.73;8.40;;;;;;;7.51;49.65;94418.91;1813996;77;21056;-80
2021/03/02 09:02:01;;;;;;;16.32;10.72;;;;;;;7.62;48.99;94416.46;1810204;79;21427;-80
2021/03/02 09:04:32;;;;;;;14.40;9.93;;;;;;;7.64;48.84;94413.42;1809136;79;21195;-80
2021/03/02 09:07:00;;;;;;;11.45;7.45;;;;;;;7.66;48.84;94411.12;1808879;79;21168;-80
2021/03/02 09:09:29;;;;;;;16.05;11.00;;;;;;;7.73;48.85;94406.66;1810150;77;21175;-81
2021/03/02 09:11:58;;;;;;;13.85;9.40;;;;;;;7.87;49.24;94407.55;1856550;77;22411;-80
2021/03/02 09:14:36;;;;;;;12.43;8.70;;;;;;;8.01;49.07;94406.52;1817934;77;21340;-80
2021/03/02 09:17:05;;;;;;;12.00;8.83;;;;;;;8.08;49.29;94401.80;1809635;79;21171;-80
2021/03/02 09:19:41;;;;;;;10.48;8.03;;;;;;;8.20;49.08;94404.40;1830634;77;21139;-79
2021/03/02 09:22:14;;;;;;;18.85;14.68;;;;;;;8.30;48.84;94405.73;1843702;77;21886;-79
2021/03/02 09:24:56;;;;;;;11.83;9.08;;;;;;;8.42;48.82;94401.55;1813691;77;21179;-79
2021/03/02 09:27:36;;;;;;;10.75;7.75;;;;;;;8.37;47.08;94403.20;1856094;77;21218;-80
2021/03/02 09:30:07;;;;;;;11.78;8.23;;;;;;;8.27;48.28;94403.19;1777790;80;21182;-80
2021/03/02 09:32:36;;;;;;;9.95;6.92;;;;;;;8.36;48.43;94402.19;1844343;77;21159;-79
2021/03/02 09:35:07;;;;;;;10.35;7.62;;;;;;;8.54;48.63;94395.77;1827228;77;21100;-80
2021/03/02 09:37:36;;;;;;;9.43;7.40;;;;;;;8.72;47.85;94405.03;1809731;79;21156;-80
2021/03/02 09:40:08;;;;;;;8.65;6.65;;;;;;;8.76;47.74;94404.52;1819150;74;22230;-81
2021/03/02 09:42:38;;;;;;;9.28;7.55;;;;;;;8.73;47.89;94400.63;1855447;77;21187;-81
2021/03/02 09:45:14;;;;;;;7.45;6.30;;;;;;;8.61;48.57;94403.47;1810155;79;21698;-81
2021/03/02 09:47:43;;;;;;;8.00;6.30;;;;;;;8.43;48.05;94399.08;1809089;79;21111;-81
2021/03/02 09:50:16;;;;;;;8.33;6.72;;;;;;;8.20;48.81;94396.84;1839503;77;21187;-81
2021/03/02 09:52:50;;;;;;;9.13;5.67;;;;;;;8.02;50.31;94400.52;1835550;77;21354;-80
2021/03/02 09:55:30;;;;;;;8.73;5.97;;;;;;;7.84;49.41;94392.01;1809545;79;21501;-82
2021/03/02 09:58:12;;;;;;;8.95;6.72;;;;;;;7.76;50.58;94394.34;1814811;77;21187;-81
2021/03/02 10:00:41;;;;;;;10.08;6.42;;;;;;;7.71;50.67;94394.61;1855624;77;21167;-81
2021/03/02 10:03:23;;;;;;;7.03;5.67;;;;;;;7.60;51.36;94386.81;1809443;79;21200;-82
2021/03/02 10:06:00;;;;;;;8.33;5.65;;;;;;;7.44;50.36;94388.97;1808777;79;21366;-82
2021/03/02 10:08:54;;;;;;;9.93;5.60;;;;;;;7.24;50.72;94393.53;1842778;77;21657;-80
2021/03/02 10:11:22;;;;;;;7.97;5.75;;;;;;;7.05;51.61;94387.48;1747387;81;21289;-82
2021/03/02 10:13:59;;;;;;;9.18;6.05;;;;;;;6.86;52.57;94395.49;1841599;75;21155;-83
2021/03/02 10:16:48;;;;;;;14.20;9.40;;;;;;;6.70;53.23;94387.37;1856992;75;21163;-82
2021/03/02 10:19:21;;;;;;;11.97;8.25;;;;;;;6.59;54.32;94386.88;1855347;74;22062;-81
2021/03/02 10:21:50;;;;;;;17.25;14.05;;;;;;;6.56;55.23;94376.95;1837905;77;21195;-84
2021/03/02 10:24:20;;;;;;;10.23;7.60;;;;;;;6.52;56.78;94378.78;1810583;79;21045;-86
2021/03/02 10:26:48;;;;;;;8.50;6.12;;;;;;;6.47;56.40;94370.94;1810887;79;21167;-83
2021/03/02 10:29:17;;;;;;;8.98;5.97;;;;;;;6.41;56.85;94371.53;1820096;77;21154;-82
2021/03/02 10:31:45;;;;;;;9.13;6.53;;;;;;;6.41;55.39;94366.13;1820385;77;22223;-83
2021/03/02 10:34:14;;;;;;;8.25;6.15;;;;;;;6.36;56.20;94360.95;1835755;77;21179;-85
2021/03/02 10:36:42;;;;;;;8.78;6.47;;;;;;;6.38;56.73;94360.05;1841957;77;21567;-87
2021/03/02 10:39:14;;;;;;;11.80;6.17;;;;;;;6.38;57.15;94354.08;1810698;79;21588;-82
2021/03/02 10:41:43;;;;;;;9.20;6.22;;;;;;;6.43;57.01;94356.55;1809928;79;21171;-85
2021/03/02 10:44:11;;;;;;;9.75;6.75;;;;;;;6.48;57.50;94350.89;1810454;79;21204;-83
2021/03/02 10:46:39;;;;;;;11.37;6.57;;;;;;;6.56;57.23;94347.80;1809686;79;21215;-86
2021/03/02 10:49:08;;;;;;;11.12;6.70;;;;;;;6.61;57.77;94339.43;1810495;79;21433;-85
2021/03/02 10:51:35;;;;;;;10.28;6.50;;;;;;;6.67;58.37;94337.27;1809596;79;21161;-84
2021/03/02 10:54:04;;;;;;;12.13;7.70;;;;;;;6.70;58.07;94337.36;1808743;79;21179;-85
2021/03/02 10:56:32;;;;;;;14.58;9.30;;;;;;;6.75;58.01;94329.56;1809913;79;22095;-85
2021/03/02 10:59:00;;;;;;;11.60;7.50;;;;;;;6.76;58.22;94323.80;1809303;79;21179;-87
2021/03/02 11:01:27;;;;;;;10.70;6.75;;;;;;;6.80;58.81;94323.88;1808969;79;21171;-85
2021/03/02 11:03:55;;;;;;;11.05;7.62;;;;;;;6.86;57.96;94316.31;1808676;79;21473;-86
2021/03/02 11:06:28;;;;;;;10.98;6.72;;;;;;;6.89;57.59;94312.34;1809127;79;21726;-84
2021/03/02 11:08:58;;;;;;;8.05;5.95;;;;;;;6.92;59.92;94313.00;1809375;79;21388;-89
2021/03/02 11:11:26;;;;;;;9.38;6.17;;;;;;;7.02;58.33;94307.04;1778223;79;21207;-88
2021/03/02 11:13:54;;;;;;;10.10;6.55;;;;;;;7.05;57.87;94304.99;1777906;79;21130;-84
2021/03/02 11:16:22;;;;;;;14.43;9.73;;;;;;;7.11;58.40;94297.41;1810428;78;21203;-83
2021/03/02 11:18:51;;;;;;;9.28;7.10;;;;;;;7.15;58.21;94292.08;1810640;77;21143;-89
2021/03/02 11:21:19;;;;;;;11.95;7.70;;;;;;;7.15;59.43;94296.14;1810486;77;21435;-85
2021/03/02 11:23:47;;;;;;;11.28;7.37;;;;;;;7.17;59.02;94290.58;1810200;79;21167;-84
2021/03/02 11:26:14;;;;;;;9.98;6.83;;;;;;;7.22;59.45;94293.03;1861315;75;21599;-83
2021/03/02 11:28:42;;;;;;;9.48;5.97;;;;;;;7.26;58.75;94296.59;1830721;76;21211;-84
2021/03/02 11:31:10;;;;;;;9.50;7.12;;;;;;;7.31;59.81;94290.13;1823272;77;21204;-84
2021/03/02 11:33:37;;;;;;;9.70;6.60;;;;;;;7.34;59.41;94290.77;1844156;77;21368;-82
2021/03/02 11:36:08;;;;;;;10.13;6.62;;;;;;;7.38;60.41;94282.73;1844246;77;21182;-82
2021/03/02 11:38:37;;;;;;;9.55;6.35;;;;;;;7.44;59.51;94284.79;1843526;77;21800;-81
2021/03/02 11:41:05;;;;;;;13.25;7.95;;;;;;;7.52;59.72;94281.12;1843839;77;21155;-84
2021/03/02 11:43:34;;;;;;;12.55;7.85;;;;;;;7.59;58.89;94280.47;1814932;77;39696;-84
2021/03/02 11:46:03;;;;;;;13.10;7.67;;;;;;;7.61;58.91;94272.79;1844101;77;21381;-82
2021/03/02 11:48:31;;;;;;;10.53;7.50;;;;;;;7.61;61.66;94274.72;1841176;77;21151;-85
2021/03/02 11:50:58;;;;;;;12.82;8.90;;;;;;;7.60;62.12;94269.06;1798754;79;21137;-79
2021/03/02 11:53:27;;;;;;;12.33;8.48;;;;;;;7.60;61.91;94279.89;1776826;80;21707;-81
2021/03/02 11:55:55;;;;;;;10.23;7.08;;;;;;;7.63;61.42;94271.07;1776789;80;21576;-83
2021/03/02 11:58:23;;;;;;;12.45;8.05;;;;;;;7.71;61.76;94267.36;1776930;80;22105;-85
2021/03/02 12:00:50;;;;;;;11.25;7.25;;;;;;;7.82;63.07;94262.17;1766188;77;21195;-84
2021/03/02 12:03:20;;;;;;;11.28;7.53;;;;;;;7.84;62.02;94257.20;1856573;77;21123;-81
2021/03/02 12:05:52;;;;;;;9.70;6.53;;;;;;;7.91;63.27;94262.75;1840431;77;21180;-85
2021/03/02 12:08:21;;;;;;;8.63;6.45;;;;;;;7.94;62.84;94264.18;1832526;77;21130;-81
2021/03/02 12:10:49;;;;;;;8.90;6.12;;;;;;;7.98;61.72;94258.25;1797850;78;21354;-83
2021/03/02 12:13:18;;;;;;;12.13;6.45;;;;;;;7.99;61.07;94266.59;1826754;76;21122;-87
2021/03/02 12:15:46;;;;;;;9.08;6.37;;;;;;;7.99;63.71;94266.59;1850764;77;22034;-87
2021/03/02 12:18:14;;;;;;;16.82;8.98;;;;;;;8.00;63.52;94255.95;1808973;78;21160;-87
2021/03/02 12:20:44;;;;;;;16.97;9.73;;;;;;;8.02;63.88;94253.69;1852946;77;21616;-83
2021/03/02 12:23:13;;;;;;;13.65;7.58;;;;;;;8.07;64.04;94253.96;1822127;77;22705;-82
2021/03/02 12:25:41;;;;;;;14.28;8.50;;;;;;;8.09;63.10;94244.14;1832895;77;21167;-84